Rimnicu Vilcea, Romania
Current Conditions -  °F | °C
As of 12:30 PM on Saturday 20 Dec 2014 (Local Time) from LRSB Reporting Station
Rain Showers Rain Showers  
Wind Chill: 42°   Ceiling: 4900
Heat Index: 48°   Visibility: 6mi
Dew Point: 39°   Wind: 16mph
Humidity: 71%   Direction: 280°W
Pressure: 30.09"   Gusts: NA
Location:  45.11°N, 24.38°E
Report Text: LRSB 200930Z 28014KT 9999 -SHRA SCT036CB BKN049 09/04 Q1019
Loading
Personal Weather Stations






























Interactive Weather Map New forecast layout! Learn more

10-Day Weather Forecast

Advertisements
Track Severe Weather on mobile